sensor_id;sensor_type;location;lat;lon;timestamp;temperature;humidity
20560;DHT22;10438;51.454;6.718;2023-05-07T00:00:16;15.90;99.90
20560;DHT22;10438;51.454;6.718;2023-05-07T00:02:47;15.90;99.90
20560;DHT22;10438;51.454;6.718;2023-05-07T00:05:12;15.90;99.90
20560;DHT22;10438;51.454;6.718;2023-05-07T00:07:38;15.90;99.90
20560;DHT22;10438;51.454;6.718;2023-05-07T00:10:04;15.90;99.90
20560;DHT22;10438;51.454;6.718;2023-05-07T00:12:31;15.90;99.90
20560;DHT22;10438;51.454;6.718;2023-05-07T00:14:59;15.80;99.90
20560;DHT22;10438;51.454;6.718;2023-05-07T00:17:25;15.80;99.90
20560;DHT22;10438;51.454;6.718;2023-05-07T00:19:50;15.80;99.90
20560;DHT22;10438;51.454;6.718;2023-05-07T00:22:16;15.80;99.90
20560;DHT22;10438;51.454;6.718;2023-05-07T00:24:41;15.80;99.90
20560;DHT22;10438;51.454;6.718;2023-05-07T00:27:07;15.80;99.90
20560;DHT22;10438;51.454;6.718;2023-05-07T00:29:33;15.80;99.90
20560;DHT22;10438;51.454;6.718;2023-05-07T00:31:58;15.80;99.90
20560;DHT22;10438;51.454;6.718;2023-05-07T00:34:24;15.80;99.90
20560;DHT22;10438;51.454;6.718;2023-05-07T00:36:49;15.80;99.90
20560;DHT22;10438;51.454;6.718;2023-05-07T00:39:15;15.70;99.90
20560;DHT22;10438;51.454;6.718;2023-05-07T00:41:41;15.70;99.90
20560;DHT22;10438;51.454;6.718;2023-05-07T00:44:06;15.70;99.90
20560;DHT22;10438;51.454;6.718;2023-05-07T00:46:32;15.70;99.90
20560;DHT22;10438;51.454;6.718;2023-05-07T00:48:59;15.70;99.90
20560;DHT22;10438;51.454;6.718;2023-05-07T00:51:26;15.70;99.90
20560;DHT22;10438;51.454;6.718;2023-05-07T00:53:53;15.60;99.90
20560;DHT22;10438;51.454;6.718;2023-05-07T00:56:20;15.60;99.90
20560;DHT22;10438;51.454;6.718;2023-05-07T00:58:46;15.70;99.90
20560;DHT22;10438;51.454;6.718;2023-05-07T01:01:12;15.60;99.90
20560;DHT22;10438;51.454;6.718;2023-05-07T01:03:38;15.60;99.90
20560;DHT22;10438;51.454;6.718;2023-05-07T01:06:04;15.60;99.90
20560;DHT22;10438;51.454;6.718;2023-05-07T01:08:31;15.60;99.90
20560;DHT22;10438;51.454;6.718;2023-05-07T01:10:58;15.50;99.90
20560;DHT22;10438;51.454;6.718;2023-05-07T01:13:24;15.50;99.90
20560;DHT22;10438;51.454;6.718;2023-05-07T01:15:50;15.50;99.90
20560;DHT22;10438;51.454;6.718;2023-05-07T01:18:15;15.50;99.90
20560;DHT22;10438;51.454;6.718;2023-05-07T01:20:42;15.40;99.90
20560;DHT22;10438;51.454;6.718;2023-05-07T01:23:07;15.40;99.90
20560;DHT22;10438;51.454;6.718;2023-05-07T01:25:34;15.40;99.90
20560;DHT22;10438;51.454;6.718;2023-05-07T01:28:00;15.40;99.90
20560;DHT22;10438;51.454;6.718;2023-05-07T01:30:27;15.40;99.90
20560;DHT22;10438;51.454;6.718;2023-05-07T01:33:13;15.40;99.90
20560;DHT22;10438;51.454;6.718;2023-05-07T01:35:43;15.30;99.90
20560;DHT22;10438;51.454;6.718;2023-05-07T01:38:11;15.40;99.90
20560;DHT22;10438;51.454;6.718;2023-05-07T01:40:37;15.30;99.90
20560;DHT22;10438;51.454;6.718;2023-05-07T01:43:03;15.30;99.90
20560;DHT22;10438;51.454;6.718;2023-05-07T01:45:30;15.30;99.90
20560;DHT22;10438;51.454;6.718;2023-05-07T01:47:58;15.20;99.90
20560;DHT22;10438;51.454;6.718;2023-05-07T01:50:23;15.20;99.90
20560;DHT22;10438;51.454;6.718;2023-05-07T01:52:50;15.20;99.90
20560;DHT22;10438;51.454;6.718;2023-05-07T01:55:16;15.20;99.90
20560;DHT22;10438;51.454;6.718;2023-05-07T01:57:41;15.20;99.90
20560;DHT22;10438;51.454;6.718;2023-05-07T02:00:08;15.20;99.90
20560;DHT22;10438;51.454;6.718;2023-05-07T02:02:34;15.20;99.90
20560;DHT22;10438;51.454;6.718;2023-05-07T02:05:00;15.20;99.90
20560;DHT22;10438;51.454;6.718;2023-05-07T02:07:28;15.20;99.90
20560;DHT22;10438;51.454;6.718;2023-05-07T02:09:54;15.20;99.90
20560;DHT22;10438;51.454;6.718;2023-05-07T02:12:21;15.20;99.90
20560;DHT22;10438;51.454;6.718;2023-05-07T02:14:46;15.10;99.90
20560;DHT22;10438;51.454;6.718;2023-05-07T02:17:12;15.10;99.90
20560;DHT22;10438;51.454;6.718;2023-05-07T02:19:37;15.10;99.90
20560;DHT22;10438;51.454;6.718;2023-05-07T02:22:03;15.10;99.90
20560;DHT22;10438;51.454;6.718;2023-05-07T02:24:28;15.10;99.90
20560;DHT22;10438;51.454;6.718;2023-05-07T02:26:54;15.10;99.90
20560;DHT22;10438;51.454;6.718;2023-05-07T02:29:19;15.10;99.90
20560;DHT22;10438;51.454;6.718;2023-05-07T02:31:45;15.00;99.90
20560;DHT22;10438;51.454;6.718;2023-05-07T02:34:10;15.00;99.90
20560;DHT22;10438;51.454;6.718;2023-05-07T02:36:36;15.00;99.90
20560;DHT22;10438;51.454;6.718;2023-05-07T02:39:03;15.00;99.90
20560;DHT22;10438;51.454;6.718;2023-05-07T02:41:28;15.00;99.90
20560;DHT22;10438;51.454;6.718;2023-05-07T02:43:54;15.00;99.90
20560;DHT22;10438;51.454;6.718;2023-05-07T02:46:19;15.00;99.90
20560;DHT22;10438;51.454;6.718;2023-05-07T02:48:45;15.00;99.90
20560;DHT22;10438;51.454;6.718;2023-05-07T02:51:10;15.00;99.90
20560;DHT22;10438;51.454;6.718;2023-05-07T02:53:36;15.00;99.90
20560;DHT22;10438;51.454;6.718;2023-05-07T02:56:02;14.90;99.90
20560;DHT22;10438;51.454;6.718;2023-05-07T02:58:28;14.90;99.90
20560;DHT22;10438;51.454;6.718;2023-05-07T03:00:53;14.90;99.90
20560;DHT22;10438;51.454;6.718;2023-05-07T03:03:20;14.90;99.90
20560;DHT22;10438;51.454;6.718;2023-05-07T03:05:45;14.90;99.90
20560;DHT22;10438;51.454;6.718;2023-05-07T03:08:11;14.90;99.90
20560;DHT22;10438;51.454;6.718;2023-05-07T03:10:37;14.90;99.90
20560;DHT22;10438;51.454;6.718;2023-05-07T03:13:03;14.90;99.90
20560;DHT22;10438;51.454;6.718;2023-05-07T03:15:28;14.90;99.90
20560;DHT22;10438;51.454;6.718;2023-05-07T03:17:54;14.90;99.90
20560;DHT22;10438;51.454;6.718;2023-05-07T03:20:19;14.90;99.90
20560;DHT22;10438;51.454;6.718;2023-05-07T03:22:45;14.90;99.90
20560;DHT22;10438;51.454;6.718;2023-05-07T03:25:10;14.90;99.90
20560;DHT22;10438;51.454;6.718;2023-05-07T03:27:36;14.90;99.90
20560;DHT22;10438;51.454;6.718;2023-05-07T03:30:02;14.80;99.90
20560;DHT22;10438;51.454;6.718;2023-05-07T03:32:28;14.80;99.90
20560;DHT22;10438;51.454;6.718;2023-05-07T03:34:53;14.80;99.90
20560;DHT22;10438;51.454;6.718;2023-05-07T03:37:19;14.80;99.90
20560;DHT22;10438;51.454;6.718;2023-05-07T03:39:44;14.80;99.90
20560;DHT22;10438;51.454;6.718;2023-05-07T03:42:10;14.80;99.90
20560;DHT22;10438;51.454;6.718;2023-05-07T03:44:36;14.80;99.90
20560;DHT22;10438;51.454;6.718;2023-05-07T03:47:02;14.80;99.90
20560;DHT22;10438;51.454;6.718;2023-05-07T03:49:28;14.80;99.90
20560;DHT22;10438;51.454;6.718;2023-05-07T03:51:53;14.70;99.90
20560;DHT22;10438;51.454;6.718;2023-05-07T03:54:19;14.70;99.90
20560;DHT22;10438;51.454;6.718;2023-05-07T03:56:44;14.70;99.90
20560;DHT22;10438;51.454;6.718;2023-05-07T03:59:10;14.70;99.90
20560;DHT22;10438;51.454;6.718;2023-05-07T04:01:35;14.70;99.90
20560;DHT22;10438;51.454;6.718;2023-05-07T04:04:01;14.70;99.90
20560;DHT22;10438;51.454;6.718;2023-05-07T04:06:26;14.70;99.90
20560;DHT22;10438;51.454;6.718;2023-05-07T04:08:52;14.70;99.90
20560;DHT22;10438;51.454;6.718;2023-05-07T04:11:18;14.60;99.90
20560;DHT22;10438;51.454;6.718;2023-05-07T04:13:43;14.70;99.90
20560;DHT22;10438;51.454;6.718;2023-05-07T04:16:09;14.70;99.90
20560;DHT22;10438;51.454;6.718;2023-05-07T04:18:35;14.70;99.90
20560;DHT22;10438;51.454;6.718;2023-05-07T04:21:01;14.70;99.90
20560;DHT22;10438;51.454;6.718;2023-05-07T04:23:26;14.60;99.90
20560;DHT22;10438;51.454;6.718;2023-05-07T04:25:52;14.60;99.90
20560;DHT22;10438;51.454;6.718;2023-05-07T04:28:17;14.60;99.90
20560;DHT22;10438;51.454;6.718;2023-05-07T04:30:43;14.60;99.90
20560;DHT22;10438;51.454;6.718;2023-05-07T04:33:08;14.60;99.90
20560;DHT22;10438;51.454;6.718;2023-05-07T04:35:35;14.60;99.90
20560;DHT22;10438;51.454;6.718;2023-05-07T04:38:00;14.60;99.90
20560;DHT22;10438;51.454;6.718;2023-05-07T04:40:27;14.70;99.90
20560;DHT22;10438;51.454;6.718;2023-05-07T04:42:53;14.60;99.90
20560;DHT22;10438;51.454;6.718;2023-05-07T04:45:19;14.70;99.90
20560;DHT22;10438;51.454;6.718;2023-05-07T04:47:44;14.70;99.90
20560;DHT22;10438;51.454;6.718;2023-05-07T04:50:10;14.70;99.90
20560;DHT22;10438;51.454;6.718;2023-05-07T04:52:36;14.70;99.90
20560;DHT22;10438;51.454;6.718;2023-05-07T04:55:01;14.70;99.90
20560;DHT22;10438;51.454;6.718;2023-05-07T04:57:27;14.60;99.90
20560;DHT22;10438;51.454;6.718;2023-05-07T04:59:53;14.70;99.90
20560;DHT22;10438;51.454;6.718;2023-05-07T05:02:19;14.70;99.90
20560;DHT22;10438;51.454;6.718;2023-05-07T05:04:44;14.70;99.90
20560;DHT22;10438;51.454;6.718;2023-05-07T05:07:10;14.70;99.90
20560;DHT22;10438;51.454;6.718;2023-05-07T05:09:35;14.70;99.90
20560;DHT22;10438;51.454;6.718;2023-05-07T05:12:01;14.70;99.90
20560;DHT22;10438;51.454;6.718;2023-05-07T05:14:26;14.70;99.90
20560;DHT22;10438;51.454;6.718;2023-05-07T05:16:52;14.70;99.90
20560;DHT22;10438;51.454;6.718;2023-05-07T05:19:18;14.70;99.90
20560;DHT22;10438;51.454;6.718;2023-05-07T05:21:43;14.70;99.90
20560;DHT22;10438;51.454;6.718;2023-05-07T05:24:09;14.70;99.90
20560;DHT22;10438;51.454;6.718;2023-05-07T05:26:34;14.70;99.90
20560;DHT22;10438;51.454;6.718;2023-05-07T05:29:00;14.70;99.90
20560;DHT22;10438;51.454;6.718;2023-05-07T05:31:25;14.70;99.90
20560;DHT22;10438;51.454;6.718;2023-05-07T05:33:51;14.70;99.90
20560;DHT22;10438;51.454;6.718;2023-05-07T05:36:17;14.70;99.90
20560;DHT22;10438;51.454;6.718;2023-05-07T05:38:42;14.70;99.90
20560;DHT22;10438;51.454;6.718;2023-05-07T05:41:09;14.80;99.90
20560;DHT22;10438;51.454;6.718;2023-05-07T05:43:35;14.80;99.90
20560;DHT22;10438;51.454;6.718;2023-05-07T05:46:00;14.80;99.90
20560;DHT22;10438;51.454;6.718;2023-05-07T05:48:26;14.90;99.90
20560;DHT22;10438;51.454;6.718;2023-05-07T05:50:51;14.90;99.90
20560;DHT22;10438;51.454;6.718;2023-05-07T05:53:17;14.90;99.90
20560;DHT22;10438;51.454;6.718;2023-05-07T05:55:42;15.00;99.90
20560;DHT22;10438;51.454;6.718;2023-05-07T05:58:09;15.00;99.90
20560;DHT22;10438;51.454;6.718;2023-05-07T06:00:34;15.10;99.90
20560;DHT22;10438;51.454;6.718;2023-05-07T06:03:00;15.10;99.90
20560;DHT22;10438;51.454;6.718;2023-05-07T06:05:25;15.20;99.90
20560;DHT22;10438;51.454;6.718;2023-05-07T06:07:51;15.30;99.90
20560;DHT22;10438;51.454;6.718;2023-05-07T06:10:17;15.40;99.90
20560;DHT22;10438;51.454;6.718;2023-05-07T06:12:42;15.60;99.90
20560;DHT22;10438;51.454;6.718;2023-05-07T06:15:08;15.60;99.90
20560;DHT22;10438;51.454;6.718;2023-05-07T06:17:34;15.70;99.90
20560;DHT22;10438;51.454;6.718;2023-05-07T06:19:59;15.80;99.90
20560;DHT22;10438;51.454;6.718;2023-05-07T06:22:25;15.80;99.90
20560;DHT22;10438;51.454;6.718;2023-05-07T06:24:50;15.80;99.90
20560;DHT22;10438;51.454;6.718;2023-05-07T06:27:16;15.80;99.90
20560;DHT22;10438;51.454;6.718;2023-05-07T06:29:41;15.80;99.90
20560;DHT22;10438;51.454;6.718;2023-05-07T06:32:13;15.90;99.90
20560;DHT22;10438;51.454;6.718;2023-05-07T06:34:39;15.90;99.90
20560;DHT22;10438;51.454;6.718;2023-05-07T06:37:05;16.00;99.90
20560;DHT22;10438;51.454;6.718;2023-05-07T06:39:31;16.00;99.90
20560;DHT22;10438;51.454;6.718;2023-05-07T06:41:57;16.10;99.90
20560;DHT22;10438;51.454;6.718;2023-05-07T06:44:23;16.20;99.90
20560;DHT22;10438;51.454;6.718;2023-05-07T06:46:48;16.30;99.90
20560;DHT22;10438;51.454;6.718;2023-05-07T06:49:14;16.30;99.90
20560;DHT22;10438;51.454;6.718;2023-05-07T06:51:40;16.30;99.90
20560;DHT22;10438;51.454;6.718;2023-05-07T06:54:06;16.40;99.90
20560;DHT22;10438;51.454;6.718;2023-05-07T06:56:32;16.40;99.90
20560;DHT22;10438;51.454;6.718;2023-05-07T06:58:59;16.40;99.90
20560;DHT22;10438;51.454;6.718;2023-05-07T07:01:24;16.40;99.90
20560;DHT22;10438;51.454;6.718;2023-05-07T07:03:50;16.50;99.90
20560;DHT22;10438;51.454;6.718;2023-05-07T07:06:16;16.50;99.90
20560;DHT22;10438;51.454;6.718;2023-05-07T07:08:41;16.70;99.90
20560;DHT22;10438;51.454;6.718;2023-05-07T07:11:08;16.70;99.90
20560;DHT22;10438;51.454;6.718;2023-05-07T07:13:34;16.70;99.90
20560;DHT22;10438;51.454;6.718;2023-05-07T07:16:00;16.80;99.90
20560;DHT22;10438;51.454;6.718;2023-05-07T07:18:25;16.90;99.90
20560;DHT22;10438;51.454;6.718;2023-05-07T07:20:51;16.90;99.90
20560;DHT22;10438;51.454;6.718;2023-05-07T07:23:16;16.90;99.90
20560;DHT22;10438;51.454;6.718;2023-05-07T07:25:42;16.90;99.90
20560;DHT22;10438;51.454;6.718;2023-05-07T07:28:07;17.00;99.90
20560;DHT22;10438;51.454;6.718;2023-05-07T07:30:33;17.00;99.90
20560;DHT22;10438;51.454;6.718;2023-05-07T07:32:59;17.20;99.90
20560;DHT22;10438;51.454;6.718;2023-05-07T07:35:32;17.30;99.90
20560;DHT22;10438;51.454;6.718;2023-05-07T07:37:58;17.50;99.90
20560;DHT22;10438;51.454;6.718;2023-05-07T07:40:23;17.60;99.90
20560;DHT22;10438;51.454;6.718;2023-05-07T07:42:49;17.50;99.90
20560;DHT22;10438;51.454;6.718;2023-05-07T07:45:14;17.70;99.90
20560;DHT22;10438;51.454;6.718;2023-05-07T07:47:40;17.60;99.90
20560;DHT22;10438;51.454;6.718;2023-05-07T07:50:07;17.60;99.90
20560;DHT22;10438;51.454;6.718;2023-05-07T07:52:33;17.80;99.90
20560;DHT22;10438;51.454;6.718;2023-05-07T07:54:59;17.90;99.90
20560;DHT22;10438;51.454;6.718;2023-05-07T07:57:24;18.00;99.90
20560;DHT22;10438;51.454;6.718;2023-05-07T07:59:50;18.20;99.90
20560;DHT22;10438;51.454;6.718;2023-05-07T08:02:16;18.40;99.90
20560;DHT22;10438;51.454;6.718;2023-05-07T08:04:42;18.60;99.90
20560;DHT22;10438;51.454;6.718;2023-05-07T08:07:12;18.70;99.90
20560;DHT22;10438;51.454;6.718;2023-05-07T08:09:38;18.70;99.90
20560;DHT22;10438;51.454;6.718;2023-05-07T08:12:07;18.50;99.90
20560;DHT22;10438;51.454;6.718;2023-05-07T08:14:33;18.60;99.90
20560;DHT22;10438;51.454;6.718;2023-05-07T08:16:59;18.60;99.90
20560;DHT22;10438;51.454;6.718;2023-05-07T08:19:25;18.60;99.90
20560;DHT22;10438;51.454;6.718;2023-05-07T08:21:50;18.60;99.90
20560;DHT22;10438;51.454;6.718;2023-05-07T08:24:16;18.60;99.90
20560;DHT22;10438;51.454;6.718;2023-05-07T08:26:43;18.60;99.90
20560;DHT22;10438;51.454;6.718;2023-05-07T08:29:09;18.60;99.90
20560;DHT22;10438;51.454;6.718;2023-05-07T08:31:34;18.60;99.90
20560;DHT22;10438;51.454;6.718;2023-05-07T08:34:00;18.50;99.90
20560;DHT22;10438;51.454;6.718;2023-05-07T08:36:26;18.50;99.90
20560;DHT22;10438;51.454;6.718;2023-05-07T08:38:52;18.60;99.90
20560;DHT22;10438;51.454;6.718;2023-05-07T08:41:18;18.60;99.90
20560;DHT22;10438;51.454;6.718;2023-05-07T08:43:47;18.70;99.90
20560;DHT22;10438;51.454;6.718;2023-05-07T08:46:17;18.90;99.90
20560;DHT22;10438;51.454;6.718;2023-05-07T08:48:44;19.30;99.90
20560;DHT22;10438;51.454;6.718;2023-05-07T08:51:12;19.50;99.90
20560;DHT22;10438;51.454;6.718;2023-05-07T08:53:41;19.80;99.90
20560;DHT22;10438;51.454;6.718;2023-05-07T08:56:08;19.90;99.90
20560;DHT22;10438;51.454;6.718;2023-05-07T08:58:34;20.10;99.90
20560;DHT22;10438;51.454;6.718;2023-05-07T09:01:02;20.30;99.90
20560;DHT22;10438;51.454;6.718;2023-05-07T09:03:28;20.60;99.90
20560;DHT22;10438;51.454;6.718;2023-05-07T09:05:55;20.80;99.90
20560;DHT22;10438;51.454;6.718;2023-05-07T09:08:24;20.70;99.90
20560;DHT22;10438;51.454;6.718;2023-05-07T09:10:52;20.90;99.90
20560;DHT22;10438;51.454;6.718;2023-05-07T09:13:17;20.70;99.90
20560;DHT22;10438;51.454;6.718;2023-05-07T09:15:43;20.80;99.90
20560;DHT22;10438;51.454;6.718;2023-05-07T09:18:09;21.00;99.90
20560;DHT22;10438;51.454;6.718;2023-05-07T09:20:36;21.20;99.90
20560;DHT22;10438;51.454;6.718;2023-05-07T09:23:02;21.10;99.90
20560;DHT22;10438;51.454;6.718;2023-05-07T09:25:32;21.00;99.90
20560;DHT22;10438;51.454;6.718;2023-05-07T09:27:59;21.10;99.90
20560;DHT22;10438;51.454;6.718;2023-05-07T09:30:31;21.30;99.90
20560;DHT22;10438;51.454;6.718;2023-05-07T09:33:01;21.40;99.90
20560;DHT22;10438;51.454;6.718;2023-05-07T09:35:27;21.50;99.90
20560;DHT22;10438;51.454;6.718;2023-05-07T09:37:55;21.70;99.90
20560;DHT22;10438;51.454;6.718;2023-05-07T09:40:21;21.90;99.90
20560;DHT22;10438;51.454;6.718;2023-05-07T09:42:48;21.80;99.90
20560;DHT22;10438;51.454;6.718;2023-05-07T09:45:14;21.60;99.90
20560;DHT22;10438;51.454;6.718;2023-05-07T09:47:42;21.70;99.90
20560;DHT22;10438;51.454;6.718;2023-05-07T09:50:12;21.70;99.90
20560;DHT22;10438;51.454;6.718;2023-05-07T09:52:39;21.80;99.90
20560;DHT22;10438;51.454;6.718;2023-05-07T09:55:06;21.80;99.90
20560;DHT22;10438;51.454;6.718;2023-05-07T09:57:33;21.90;99.90
20560;DHT22;10438;51.454;6.718;2023-05-07T09:59:59;22.10;99.90
20560;DHT22;10438;51.454;6.718;2023-05-07T10:02:30;22.00;99.90
20560;DHT22;10438;51.454;6.718;2023-05-07T10:04:56;22.00;99.90
20560;DHT22;10438;51.454;6.718;2023-05-07T10:07:24;22.10;99.90
20560;DHT22;10438;51.454;6.718;2023-05-07T10:09:50;22.10;99.90
20560;DHT22;10438;51.454;6.718;2023-05-07T10:12:17;22.20;99.90
20560;DHT22;10438;51.454;6.718;2023-05-07T10:14:45;22.20;99.90
20560;DHT22;10438;51.454;6.718;2023-05-07T10:17:11;22.10;99.90
20560;DHT22;10438;51.454;6.718;2023-05-07T10:19:37;22.40;99.90
20560;DHT22;10438;51.454;6.718;2023-05-07T10:22:05;22.90;99.90
20560;DHT22;10438;51.454;6.718;2023-05-07T10:24:35;23.00;99.90
20560;DHT22;10438;51.454;6.718;2023-05-07T10:27:07;23.30;99.90
20560;DHT22;10438;51.454;6.718;2023-05-07T10:29:44;23.40;96.10
20560;DHT22;10438;51.454;6.718;2023-05-07T10:35:04;22.80;95.60
20560;DHT22;10438;51.454;6.718;2023-05-07T10:37:32;22.50;99.10
20560;DHT22;10438;51.454;6.718;2023-05-07T10:39:58;22.50;99.90
20560;DHT22;10438;51.454;6.718;2023-05-07T10:42:24;22.50;99.90
20560;DHT22;10438;51.454;6.718;2023-05-07T10:44:49;22.50;99.90
20560;DHT22;10438;51.454;6.718;2023-05-07T10:47:16;22.60;97.00
20560;DHT22;10438;51.454;6.718;2023-05-07T10:52:23;23.10;99.10
20560;DHT22;10438;51.454;6.718;2023-05-07T10:57:42;23.20;96.70
20560;DHT22;10438;51.454;6.718;2023-05-07T11:05:28;23.00;94.90
20560;DHT22;10438;51.454;6.718;2023-05-07T11:08:01;23.20;98.20
20560;DHT22;10438;51.454;6.718;2023-05-07T11:10:56;23.00;93.80
20560;DHT22;10438;51.454;6.718;2023-05-07T11:13:43;22.80;95.50
20560;DHT22;10438;51.454;6.718;2023-05-07T11:16:22;22.80;92.90
20560;DHT22;10438;51.454;6.718;2023-05-07T11:18:50;22.70;93.60
20560;DHT22;10438;51.454;6.718;2023-05-07T11:21:33;22.60;95.40
20560;DHT22;10438;51.454;6.718;2023-05-07T11:23:59;22.90;95.50
20560;DHT22;10438;51.454;6.718;2023-05-07T11:26:25;22.50;92.20
20560;DHT22;10438;51.454;6.718;2023-05-07T11:28:52;22.30;91.50
20560;DHT22;10438;51.454;6.718;2023-05-07T11:31:37;22.20;96.70
20560;DHT22;10438;51.454;6.718;2023-05-07T11:34:02;22.10;98.40
20560;DHT22;10438;51.454;6.718;2023-05-07T11:36:32;22.10;97.60
20560;DHT22;10438;51.454;6.718;2023-05-07T11:38:57;22.50;99.90
20560;DHT22;10438;51.454;6.718;2023-05-07T11:41:33;22.70;97.40
20560;DHT22;10438;51.454;6.718;2023-05-07T11:43:59;22.60;99.30
20560;DHT22;10438;51.454;6.718;2023-05-07T11:46:28;22.70;97.60
20560;DHT22;10438;51.454;6.718;2023-05-07T11:48:54;22.80;97.50
20560;DHT22;10438;51.454;6.718;2023-05-07T11:51:22;23.10;94.70
20560;DHT22;10438;51.454;6.718;2023-05-07T11:53:48;23.10;90.00
20560;DHT22;10438;51.454;6.718;2023-05-07T11:56:16;22.80;91.00
20560;DHT22;10438;51.454;6.718;2023-05-07T11:58:44;22.70;90.80
20560;DHT22;10438;51.454;6.718;2023-05-07T12:01:11;22.50;95.20
20560;DHT22;10438;51.454;6.718;2023-05-07T12:03:41;22.30;97.20
20560;DHT22;10438;51.454;6.718;2023-05-07T12:06:08;22.30;97.60
20560;DHT22;10438;51.454;6.718;2023-05-07T12:08:36;22.50;97.90
20560;DHT22;10438;51.454;6.718;2023-05-07T12:11:03;22.70;99.40
20560;DHT22;10438;51.454;6.718;2023-05-07T12:13:32;22.80;95.90
20560;DHT22;10438;51.454;6.718;2023-05-07T12:15:57;22.70;94.50
20560;DHT22;10438;51.454;6.718;2023-05-07T12:18:23;22.90;94.90
20560;DHT22;10438;51.454;6.718;2023-05-07T12:20:50;22.90;96.20
20560;DHT22;10438;51.454;6.718;2023-05-07T12:23:16;22.70;90.00
20560;DHT22;10438;51.454;6.718;2023-05-07T12:25:43;22.70;92.30
20560;DHT22;10438;51.454;6.718;2023-05-07T12:28:13;22.50;96.40
20560;DHT22;10438;51.454;6.718;2023-05-07T12:30:42;22.00;95.90
20560;DHT22;10438;51.454;6.718;2023-05-07T12:33:08;22.10;95.00
20560;DHT22;10438;51.454;6.718;2023-05-07T12:35:41;22.10;98.80
20560;DHT22;10438;51.454;6.718;2023-05-07T12:38:12;21.90;94.50
20560;DHT22;10438;51.454;6.718;2023-05-07T12:40:49;22.00;95.60
20560;DHT22;10438;51.454;6.718;2023-05-07T12:43:26;22.20;95.80
20560;DHT22;10438;51.454;6.718;2023-05-07T12:45:54;22.30;94.30
20560;DHT22;10438;51.454;6.718;2023-05-07T12:48:21;22.40;92.90
20560;DHT22;10438;51.454;6.718;2023-05-07T12:50:50;22.40;87.60
20560;DHT22;10438;51.454;6.718;2023-05-07T12:53:16;22.40;92.70
20560;DHT22;10438;51.454;6.718;2023-05-07T12:55:44;22.10;94.20
20560;DHT22;10438;51.454;6.718;2023-05-07T12:58:18;22.00;94.20
20560;DHT22;10438;51.454;6.718;2023-05-07T13:00:44;22.00;96.90
20560;DHT22;10438;51.454;6.718;2023-05-07T13:03:11;22.00;99.90
20560;DHT22;10438;51.454;6.718;2023-05-07T13:05:36;22.20;99.90
20560;DHT22;10438;51.454;6.718;2023-05-07T13:08:02;22.20;98.70
20560;DHT22;10438;51.454;6.718;2023-05-07T13:10:28;22.30;99.80
20560;DHT22;10438;51.454;6.718;2023-05-07T13:12:54;22.20;99.90
20560;DHT22;10438;51.454;6.718;2023-05-07T13:15:20;22.20;98.50
20560;DHT22;10438;51.454;6.718;2023-05-07T13:17:46;22.20;96.40
20560;DHT22;10438;51.454;6.718;2023-05-07T13:20:12;22.30;97.40
20560;DHT22;10438;51.454;6.718;2023-05-07T13:22:40;22.10;97.50
20560;DHT22;10438;51.454;6.718;2023-05-07T13:25:06;22.00;97.40
20560;DHT22;10438;51.454;6.718;2023-05-07T13:27:32;21.90;98.80
20560;DHT22;10438;51.454;6.718;2023-05-07T13:30:01;21.90;99.90
20560;DHT22;10438;51.454;6.718;2023-05-07T13:32:26;21.70;95.50
20560;DHT22;10438;51.454;6.718;2023-05-07T13:34:51;21.60;99.90
20560;DHT22;10438;51.454;6.718;2023-05-07T13:37:17;21.60;99.90
20560;DHT22;10438;51.454;6.718;2023-05-07T13:39:42;21.50;99.90
20560;DHT22;10438;51.454;6.718;2023-05-07T13:42:08;21.50;99.90
20560;DHT22;10438;51.454;6.718;2023-05-07T13:44:33;21.50;99.90
20560;DHT22;10438;51.454;6.718;2023-05-07T13:46:59;21.40;99.90
20560;DHT22;10438;51.454;6.718;2023-05-07T13:49:25;21.20;99.90
20560;DHT22;10438;51.454;6.718;2023-05-07T13:51:51;21.10;99.90
20560;DHT22;10438;51.454;6.718;2023-05-07T13:54:16;20.90;99.90
20560;DHT22;10438;51.454;6.718;2023-05-07T13:56:42;20.70;99.90
20560;DHT22;10438;51.454;6.718;2023-05-07T13:59:07;20.50;99.90
20560;DHT22;10438;51.454;6.718;2023-05-07T14:01:33;20.40;99.90
20560;DHT22;10438;51.454;6.718;2023-05-07T14:03:59;20.20;99.90
20560;DHT22;10438;51.454;6.718;2023-05-07T14:06:24;20.10;99.90
20560;DHT22;10438;51.454;6.718;2023-05-07T14:08:50;19.80;99.90
20560;DHT22;10438;51.454;6.718;2023-05-07T14:11:15;19.70;99.90
20560;DHT22;10438;51.454;6.718;2023-05-07T14:13:41;19.70;99.90
20560;DHT22;10438;51.454;6.718;2023-05-07T14:16:06;19.70;99.90
20560;DHT22;10438;51.454;6.718;2023-05-07T14:18:32;19.70;99.90
20560;DHT22;10438;51.454;6.718;2023-05-07T14:20:59;19.70;99.90
20560;DHT22;10438;51.454;6.718;2023-05-07T14:23:25;19.70;99.90
20560;DHT22;10438;51.454;6.718;2023-05-07T14:25:52;19.60;99.90
20560;DHT22;10438;51.454;6.718;2023-05-07T14:28:18;19.60;99.90
20560;DHT22;10438;51.454;6.718;2023-05-07T14:30:44;19.60;99.90
20560;DHT22;10438;51.454;6.718;2023-05-07T14:33:09;19.70;99.90
20560;DHT22;10438;51.454;6.718;2023-05-07T14:35:35;19.70;99.90
20560;DHT22;10438;51.454;6.718;2023-05-07T14:38:00;19.70;99.90
20560;DHT22;10438;51.454;6.718;2023-05-07T14:40:26;19.70;99.90
20560;DHT22;10438;51.454;6.718;2023-05-07T14:42:51;19.60;99.90
20560;DHT22;10438;51.454;6.718;2023-05-07T14:45:17;19.50;99.90
20560;DHT22;10438;51.454;6.718;2023-05-07T14:47:42;19.30;99.90
20560;DHT22;10438;51.454;6.718;2023-05-07T14:50:08;19.10;99.90
20560;DHT22;10438;51.454;6.718;2023-05-07T14:52:34;18.90;99.90
20560;DHT22;10438;51.454;6.718;2023-05-07T14:54:59;18.70;99.90
20560;DHT22;10438;51.454;6.718;2023-05-07T14:57:25;18.30;99.90
20560;DHT22;10438;51.454;6.718;2023-05-07T14:59:51;17.90;99.90
20560;DHT22;10438;51.454;6.718;2023-05-07T15:02:16;17.70;99.90
20560;DHT22;10438;51.454;6.718;2023-05-07T15:04:42;17.60;99.90
20560;DHT22;10438;51.454;6.718;2023-05-07T15:07:14;17.50;99.90
20560;DHT22;10438;51.454;6.718;2023-05-07T15:09:43;17.40;99.90
20560;DHT22;10438;51.454;6.718;2023-05-07T15:12:08;17.30;99.90
20560;DHT22;10438;51.454;6.718;2023-05-07T15:14:34;17.20;99.90
20560;DHT22;10438;51.454;6.718;2023-05-07T15:17:00;17.30;99.90
20560;DHT22;10438;51.454;6.718;2023-05-07T15:19:25;17.30;99.90
20560;DHT22;10438;51.454;6.718;2023-05-07T15:21:58;17.40;99.90
20560;DHT22;10438;51.454;6.718;2023-05-07T15:24:24;17.40;99.90
20560;DHT22;10438;51.454;6.718;2023-05-07T15:26:52;17.50;99.90
20560;DHT22;10438;51.454;6.718;2023-05-07T15:29:17;17.50;99.90
20560;DHT22;10438;51.454;6.718;2023-05-07T15:31:43;17.50;99.90
20560;DHT22;10438;51.454;6.718;2023-05-07T15:34:08;17.60;99.90
20560;DHT22;10438;51.454;6.718;2023-05-07T15:36:34;17.60;99.90
20560;DHT22;10438;51.454;6.718;2023-05-07T15:39:00;17.70;99.90